Terminal Aerodrome Forecast
Issued by NWS Grand Forks, ND

Home | Current Version | Previous Version | Graphics & Text | Print | Product List | Glossary On
Versions: 1 2 3 4 5 6 7 8 9 10 11 12 13 14 15 16 17 18 19 20 21 22 23 24
000
FTUS43 KFGF 232028 AAB
TAFGFK
TAF AMD
KGFK 232028Z 2320/2418 06012KT P6SM -SN OVC025
      TEMPO 2320/2321 1SM -SN BKN015
     FM232200 09012KT P6SM OVC018
     FM240000 08013KT P6SM OVC010=

USA.gov is the U.S. government's official web portal to all federal, state and local government web resources and services.